VDPP/PNH METAR and TAF weather

Enter ICAO airport designator
Station Type Date Time Source
VDPP METAR 2019/08/20 10:00 UTC NOAA

VDPP 201000Z 17006KT 140V210 9999 SCT015 FEW017CB BKN040 29/25 Q1004 CB


Station Type Date Time Source
VDPP Decoded METAR 2019/08/20 10:00 UTC NOAA

Phnom-Penh / Pochentong, Cambodia (VDPP) 11-33N 104-51E 10M
Aug 20, 2019 - 06:00 AM EDT / 2019.08.20 1000 UTC
Wind: from the S (170 degrees) at 7 MPH (6 KT) (direction variable):0
Visibility: greater than 7 mile(s):0
Sky conditions: mostly cloudy
Weather: Cumulonimbus clouds observed
Temperature: 84 F (29 C)
Dew Point: 77 F (25 C)
Relative Humidity: 79%
Pressure (altimeter): 29.65 in. Hg (1004 hPa)
ob: VDPP 201000Z 17006KT 140V210 9999 SCT015 FEW017CB BKN040 29/25 Q1004 CB
cycle: 10

Station Type Date Time Source
VDPP TAF 2019/08/20 06:00 UTC NOAA

TAF VDPP 200500Z 2006/2024 26009KT 9999 SCT017
TEMPO 2006/2011 5000 TSRA SCT015 FEW017CB SCT040

Example: see airport list